Aviation Digital Data Service (ADDS)

Output produced by METARs form (0115 UTC 19 November 2018)
found at http://www.aviationweather.gov/metar/data/
 
METAR text: RJSI 190100Z VRB02KT 4000 -SHRA BR FEW002 SCT015 BKN030 05/05 Q1015
Conditions at: RJSI (HANAMAKI AIRPORT, JP) observed 0100 UTC 19 November 2018
Temperature: 5.0°C (41°F)
Dewpoint: 5.0°C (41°F) [RH = 100%]
Pressure (altimeter): 29.97 inches Hg (1015.0 mb)
Winds: variable direction winds at 2 MPH (2 knots; 1.0 m/s)
Visibility: 2.49 miles (4.01 km)
Ceiling: 3000 feet AGL
Clouds: few clouds at 200 feet AGL
scattered clouds at 1500 feet AGL
broken clouds at 3000 feet AGL
Weather: -SHRA BR  (light rain showers, mist)

METAR text: RJSI 190043Z 02003KT 330V060 4000 -SHRA BR FEW002 SCT015 BKN030 05/05 Q1015 RMK 1ST002 4CU015 6CU030 A2999
Conditions at: RJSI (HANAMAKI AIRPORT, JP) observed 0043 UTC 19 November 2018
Temperature: 5.0°C (41°F)
Dewpoint: 5.0°C (41°F) [RH = 100%]
Pressure (altimeter): 29.97 inches Hg (1015.0 mb)
Winds: from the NNE (20 degrees) at 3 MPH (3 knots; 1.5 m/s)
Visibility: 2.49 miles (4.01 km)
Ceiling: 3000 feet AGL
Clouds: few clouds at 200 feet AGL
scattered clouds at 1500 feet AGL
broken clouds at 3000 feet AGL
Weather: -SHRA BR  (light rain showers, mist)